Terminal Aerodrome Forecast
Issued by NWS Shreveport, LA

Home | Current Version | Previous Version | Text Only | Print | Product List | Glossary On
Versions: 1 2 3 4 5 6 7 8 9 10 11 12 13
000
FTUS44 KSHV 261746
TAFELD
TAF
KELD 261746Z 2618/2718 10005KT P6SM BKN045 BKN100
     FM262200 06006KT P6SM BKN050 BKN100
     FM270000 08005KT P6SM SCT060 BKN090
     FM271000 03002KT 6SM BR BKN045 OVC100
     FM271500 03005KT P6SM OVC050=

USA.gov is the U.S. government's official web portal to all federal, state and local government web resources and services.